createdAt,value
2023-04-05T00:00:22.070Z,75.61
2023-04-05T00:05:29.648Z,75.38
2023-04-05T00:10:31.579Z,75.29
2023-04-05T00:15:33.155Z,75.09
2023-04-05T00:20:37.398Z,75.20
2023-04-05T00:25:38.829Z,75.43
2023-04-05T00:30:40.729Z,75.62
2023-04-05T00:35:42.440Z,75.79
2023-04-05T00:40:43.987Z,76.11
2023-04-05T00:45:46.646Z,75.74
2023-04-05T00:50:49.945Z,75.75
2023-04-05T00:55:54.357Z,76.40
2023-04-05T01:00:59.430Z,75.78
2023-04-05T01:06:08.240Z,76.57
2023-04-05T01:11:13.334Z,76.43
2023-04-05T01:16:15.521Z,76.09
2023-04-05T01:21:46.018Z,75.94
2023-04-05T01:26:54.591Z,75.84
2023-04-05T01:32:21.401Z,76.22
2023-04-05T01:37:27.192Z,76.25
2023-04-05T01:42:28.655Z,77.27
2023-04-05T01:47:30.221Z,76.90
2023-04-05T01:52:32.005Z,77.22
2023-04-05T01:57:33.423Z,77.04
2023-04-05T02:02:34.967Z,77.57
2023-04-05T02:07:36.735Z,77.21
2023-04-05T02:12:38.218Z,76.84
2023-04-05T02:17:45.512Z,77.46
2023-04-05T02:22:47.108Z,77.83
2023-04-05T02:27:49.044Z,77.21
2023-04-05T02:32:50.515Z,77.96
2023-04-05T02:37:52.141Z,77.35
2023-04-05T02:42:53.636Z,77.23
2023-04-05T02:47:55.675Z,77.03
2023-04-05T02:52:58.181Z,76.38
2023-04-05T02:58:01.832Z,76.73
2023-04-05T03:03:10.504Z,75.50
2023-04-05T03:08:23.501Z,75.30
2023-04-05T03:13:34.662Z,74.81
2023-04-05T03:18:38.769Z,74.62
2023-04-05T03:23:43.099Z,74.14
2023-04-05T03:28:46.068Z,73.89
2023-04-05T03:33:48.337Z,74.20
2023-04-05T03:38:51.688Z,73.73
2023-04-05T03:43:55.735Z,73.66
2023-04-05T03:48:59.590Z,73.75
2023-04-05T03:54:01.079Z,73.99
2023-04-05T03:59:06.955Z,73.92
2023-04-05T04:04:08.647Z,73.06
2023-04-05T04:09:11.020Z,73.14
2023-04-05T04:14:12.752Z,72.46
2023-04-05T04:19:31.257Z,72.96
2023-04-05T04:24:53.438Z,72.30
2023-04-05T04:30:17.403Z,72.65
2023-04-05T04:35:40.544Z,72.66
2023-04-05T04:41:06.025Z,72.56
2023-04-05T04:46:30.708Z,72.92
2023-04-05T04:51:39.281Z,72.16
2023-04-05T04:56:40.668Z,72.75
2023-04-05T05:01:45.159Z,72.57
2023-04-05T05:06:46.570Z,72.38
2023-04-05T05:11:47.996Z,72.31
2023-04-05T05:16:49.517Z,72.58
2023-04-05T05:21:53.802Z,72.47
2023-04-05T05:26:55.418Z,72.88
2023-04-05T05:31:57.088Z,72.60
2023-04-05T05:36:58.596Z,72.68
2023-04-05T05:42:00.061Z,72.56
2023-04-05T05:47:01.500Z,72.87
2023-04-05T05:52:03.766Z,72.72
2023-04-05T05:57:05.431Z,73.06
2023-04-05T06:02:07.784Z,73.17
2023-04-05T06:07:09.259Z,72.45
2023-04-05T06:12:10.793Z,72.19
2023-04-05T06:17:12.327Z,71.64
2023-04-05T06:22:13.784Z,71.57
2023-04-05T06:27:15.213Z,71.48
2023-04-05T06:32:16.677Z,71.21
2023-04-05T06:37:18.095Z,70.44
2023-04-05T06:42:19.512Z,69.68
2023-04-05T06:47:27.976Z,69.98
2023-04-05T06:52:29.855Z,69.68
2023-04-05T06:57:31.450Z,69.20
2023-04-05T07:02:34.096Z,68.88
2023-04-05T07:07:42.465Z,68.85
2023-04-05T07:13:01.044Z,69.21
2023-04-05T07:18:02.532Z,69.14
2023-04-05T07:23:05.768Z,68.84
2023-04-05T07:28:07.195Z,68.83
2023-04-05T07:33:08.784Z,68.45
2023-04-05T07:38:11.231Z,68.35
2023-04-05T07:43:13.449Z,68.49
2023-04-05T07:48:14.901Z,68.69
2023-04-05T07:53:16.858Z,68.73
2023-04-05T07:58:18.303Z,67.78
2023-04-05T08:03:19.776Z,67.71
2023-04-05T08:08:21.762Z,68.52
2023-04-05T08:13:23.359Z,67.38
2023-04-05T08:18:24.823Z,67.39
2023-04-05T08:23:27.043Z,67.65
2023-04-05T08:28:28.541Z,67.88
2023-04-05T08:33:31.116Z,68.21
2023-04-05T08:38:32.895Z,68.71
2023-04-05T08:43:57.414Z,67.27
2023-04-05T08:48:59.625Z,67.79
2023-04-05T08:54:01.921Z,67.51
2023-04-05T08:59:08.477Z,65.77
2023-04-05T09:04:16.553Z,64.75
2023-04-05T09:09:20.278Z,63.64
2023-04-05T09:14:22.007Z,64.79
2023-04-05T09:19:23.646Z,64.98
2023-04-05T09:24:41.444Z,63.38
2023-04-05T09:29:45.526Z,63.75
2023-04-05T09:34:47.886Z,62.75
2023-04-05T09:40:05.036Z,62.18
2023-04-05T09:45:07.162Z,63.54
2023-04-05T09:50:13.914Z,64.00
2023-04-05T09:55:27.019Z,62.59
2023-04-05T10:00:29.075Z,64.90
2023-04-05T10:05:32.362Z,63.79
2023-04-05T10:10:43.709Z,62.13
2023-04-05T10:15:49.266Z,62.54
2023-04-05T10:20:52.176Z,63.40
2023-04-05T10:25:53.901Z,62.95
2023-04-05T10:31:10.002Z,62.30
2023-04-05T10:36:11.435Z,63.04
2023-04-05T10:41:14.692Z,62.73
2023-04-05T10:46:20.929Z,62.20
2023-04-05T10:51:26.778Z,60.68
2023-04-05T10:56:28.904Z,61.02
2023-04-05T11:01:31.168Z,61.06
2023-04-05T11:06:33.423Z,61.35
2023-04-05T11:11:48.626Z,57.91
2023-04-05T11:16:56.728Z,58.68
2023-04-05T11:22:01.809Z,59.34
2023-04-05T11:27:09.670Z,59.30
2023-04-05T11:32:14.159Z,59.65
2023-04-05T11:37:15.620Z,58.66
2023-04-05T11:42:18.294Z,58.84
2023-04-05T11:47:23.570Z,59.49
2023-04-05T11:52:25.191Z,57.36
2023-04-05T11:57:26.837Z,58.67
2023-04-05T12:02:28.304Z,58.80
2023-04-05T12:07:32.795Z,57.80
2023-04-05T12:12:39.460Z,58.49
2023-04-05T12:17:49.578Z,58.75
2023-04-05T12:22:56.200Z,58.88
2023-04-05T12:28:04.402Z,59.44
2023-04-05T12:33:09.715Z,60.39
2023-04-05T12:38:15.731Z,60.10
2023-04-05T12:43:19.899Z,60.68
2023-04-05T12:48:23.725Z,61.61
2023-04-05T12:53:28.588Z,61.99
2023-04-05T12:58:36.184Z,61.11
2023-04-05T13:03:37.669Z,61.50
2023-04-05T13:08:39.186Z,61.97
2023-04-05T13:13:40.937Z,62.58
2023-04-05T13:18:42.556Z,62.55
2023-04-05T13:23:44.062Z,62.90
2023-04-05T13:28:45.578Z,62.07
2023-04-05T13:33:47.022Z,60.49
2023-04-05T13:38:48.408Z,59.58
2023-04-05T13:43:50.643Z,58.76
2023-04-05T13:48:52.166Z,58.89
2023-04-05T13:53:53.585Z,59.09
2023-04-05T13:58:55.211Z,59.15
2023-04-05T14:03:56.881Z,59.03
2023-04-05T14:08:58.339Z,58.66
2023-04-05T14:14:00.151Z,58.96
2023-04-05T14:19:01.633Z,58.67
2023-04-05T14:24:03.117Z,58.80
2023-04-05T14:29:04.845Z,59.16
2023-04-05T14:34:06.320Z,58.19
2023-04-05T14:39:08.008Z,59.52
2023-04-05T14:44:09.554Z,59.11
2023-04-05T14:49:11.249Z,58.07
2023-04-05T14:54:12.838Z,57.06
2023-04-05T14:59:14.401Z,57.69
2023-04-05T15:04:15.930Z,58.29
2023-04-05T15:09:17.742Z,59.21
2023-04-05T15:14:30.731Z,59.78
2023-04-05T15:19:35.336Z,56.79
2023-04-05T15:24:38.071Z,55.94
2023-04-05T15:29:39.463Z,58.44
2023-04-05T15:34:41.148Z,56.12
2023-04-05T15:39:42.618Z,56.42
2023-04-05T15:44:44.323Z,56.20
2023-04-05T15:49:45.932Z,56.31
2023-04-05T15:54:47.666Z,56.51
2023-04-05T15:59:49.754Z,56.38
2023-04-05T16:04:51.457Z,57.20
2023-04-05T16:09:53.026Z,57.94
2023-04-05T16:14:54.488Z,58.74
2023-04-05T16:19:57.184Z,59.55
2023-04-05T16:24:58.840Z,61.66
2023-04-05T16:30:00.868Z,62.39
2023-04-05T16:35:02.403Z,62.45
2023-04-05T16:40:04.347Z,62.20
2023-04-05T16:45:06.523Z,62.26
2023-04-05T16:50:08.464Z,62.80
2023-04-05T16:55:10.269Z,63.36
2023-04-05T17:00:13.357Z,63.36
2023-04-05T17:05:15.609Z,63.45
2023-04-05T17:10:17.168Z,64.42
2023-04-05T17:15:18.710Z,64.55
2023-04-05T17:20:20.330Z,65.07
2023-04-05T17:25:21.831Z,65.41
2023-04-05T17:30:23.309Z,65.43
2023-04-05T17:35:24.828Z,66.19
2023-04-05T17:40:26.386Z,66.59
2023-04-05T17:45:28.550Z,67.28
2023-04-05T17:50:30.208Z,67.30
2023-04-05T17:55:34.625Z,67.69
2023-04-05T18:00:36.124Z,68.33
2023-04-05T18:05:37.600Z,68.41
2023-04-05T18:10:39.146Z,68.82
2023-04-05T18:15:41.246Z,68.44
2023-04-05T18:20:43.152Z,69.08
2023-04-05T18:25:45.318Z,68.85
2023-04-05T18:30:47.030Z,69.04
2023-04-05T18:35:50.339Z,69.28
2023-04-05T18:41:00.792Z,69.58
2023-04-05T18:46:02.305Z,69.92
2023-04-05T18:51:03.911Z,70.39
2023-04-05T18:56:05.567Z,70.58
2023-04-05T19:01:09.216Z,70.07
2023-04-05T19:06:10.855Z,71.10
2023-04-05T19:11:13.911Z,70.96
2023-04-05T19:16:17.396Z,71.42
2023-04-05T19:21:19.091Z,71.69
2023-04-05T19:26:22.436Z,71.63
2023-04-05T19:31:24.329Z,71.38
2023-04-05T19:36:27.222Z,71.37
2023-04-05T19:41:32.439Z,71.60
2023-04-05T19:46:34.058Z,71.39
2023-04-05T19:51:36.110Z,71.41
2023-04-05T19:56:38.977Z,71.46
2023-04-05T20:01:41.531Z,71.47
2023-04-05T20:06:45.001Z,71.79
2023-04-05T20:11:55.856Z,72.23
2023-04-05T20:16:58.392Z,72.61
2023-04-05T20:22:01.237Z,72.21
2023-04-05T20:27:03.957Z,73.17
2023-04-05T20:32:06.253Z,72.87
2023-04-05T20:37:10.994Z,73.32
2023-04-05T20:42:12.649Z,73.19
2023-04-05T20:47:14.215Z,73.33
2023-04-05T20:52:15.742Z,73.16
2023-04-05T20:57:17.358Z,73.58
2023-04-05T21:02:18.870Z,73.53
2023-04-05T21:07:20.618Z,73.89
2023-04-05T21:12:22.106Z,73.51
2023-04-05T21:17:23.601Z,73.70
2023-04-05T21:22:25.235Z,74.03
2023-04-05T21:27:27.362Z,73.80
2023-04-05T21:32:28.839Z,74.01
2023-04-05T21:37:30.324Z,73.70
2023-04-05T21:42:32.837Z,73.79
2023-04-05T21:47:34.391Z,73.94
2023-04-05T21:52:36.573Z,73.74
2023-04-05T21:57:38.294Z,73.45
